KATL/ATL METAR and TAF weather

Enter ICAO airport designator
Station Type Date Time Source
KATL METAR 2022/11/26 08:52 UTC NOAA

KATL 260852Z 09007KT 10SM FEW250 11/09 A3013 RMK AO2 SLP202 T01110089 50004


Station Type Date Time Source
KATL Decoded METAR 2022/11/26 08:52 UTC NOAA

HARTSFIELD-JACKSON ATLANTA, GA, United States (KATL) 33-39N 84-26W
Nov 26, 2022 - 03:52 AM EST / 2022.11.26 0852 UTC
Wind: from the E (090 degrees) at 8 MPH (7 KT):0
Visibility: 10 mile(s):0
Sky conditions: mostly clear
Temperature: 52.0 F (11.1 C)
Dew Point: 48.0 F (8.9 C)
Relative Humidity: 86%
Pressure (altimeter): 30.13 in. Hg (1020 hPa)
Pressure tendency: 0.01 inches (0.4 hPa) higher than three hours ago
ob: KATL 260852Z 09007KT 10SM FEW250 11/09 A3013 RMK AO2 SLP202 T01110089 50004
cycle: 9

Station Type Date Time Source
KATL TAF 2022/11/26 08:10 UTC NOAA

TAF
AMD KATL 260807Z 2608/2712 05005KT P6SM FEW003 BKN250
FM261200 09007KT P6SM SCT200
FM261800 11008KT P6SM FEW025 SCT030 BKN060
FM262100 11008KT P6SM -SHRA SCT009 BKN015 OVC025
FM270300 11008KT P6SM -SHRA BKN005 OVC009
FM270500 12009KT 4SM SHRA BR OVC003 PROB30 2706/2711 2SM TSRA BR OVC003CB

Example: see airport list